sensor_id;sensor_type;location;lat;lon;timestamp;P1;durP1;ratioP1;P2;durP2;ratioP2
70150;SDS011;57517;43.562;19.540;2022-12-18T00:01:00;14.30;;;9.65;;
70150;SDS011;57517;43.562;19.540;2022-12-18T00:03:31;15.23;;;10.43;;
70150;SDS011;57517;43.562;19.540;2022-12-18T00:06:01;14.02;;;9.93;;
70150;SDS011;57517;43.562;19.540;2022-12-18T00:08:27;11.15;;;8.48;;
70150;SDS011;57517;43.562;19.540;2022-12-18T00:10:53;13.38;;;9.40;;
70150;SDS011;57517;43.562;19.540;2022-12-18T00:13:19;13.75;;;10.15;;
70150;SDS011;57517;43.562;19.540;2022-12-18T00:15:45;12.93;;;9.57;;
70150;SDS011;57517;43.562;19.540;2022-12-18T00:18:11;14.00;;;10.13;;
70150;SDS011;57517;43.562;19.540;2022-12-18T00:20:37;17.65;;;12.20;;
70150;SDS011;57517;43.562;19.540;2022-12-18T00:23:04;16.20;;;11.52;;
70150;SDS011;57517;43.562;19.540;2022-12-18T00:25:34;14.82;;;10.13;;
70150;SDS011;57517;43.562;19.540;2022-12-18T00:28:02;12.50;;;9.70;;
70150;SDS011;57517;43.562;19.540;2022-12-18T00:30:28;11.75;;;8.68;;
70150;SDS011;57517;43.562;19.540;2022-12-18T00:32:55;13.90;;;10.68;;
70150;SDS011;57517;43.562;19.540;2022-12-18T00:35:22;13.48;;;9.77;;
70150;SDS011;57517;43.562;19.540;2022-12-18T00:37:47;15.40;;;10.93;;
70150;SDS011;57517;43.562;19.540;2022-12-18T00:40:13;13.05;;;9.90;;
70150;SDS011;57517;43.562;19.540;2022-12-18T00:42:39;14.07;;;9.43;;
70150;SDS011;57517;43.562;19.540;2022-12-18T00:45:20;14.10;;;9.95;;
70150;SDS011;57517;43.562;19.540;2022-12-18T00:47:50;15.45;;;9.70;;
70150;SDS011;57517;43.562;19.540;2022-12-18T00:50:16;15.52;;;10.82;;
70150;SDS011;57517;43.562;19.540;2022-12-18T00:52:42;14.10;;;10.23;;
70150;SDS011;57517;43.562;19.540;2022-12-18T00:55:07;15.63;;;10.80;;
70150;SDS011;57517;43.562;19.540;2022-12-18T00:57:33;16.67;;;11.15;;
70150;SDS011;57517;43.562;19.540;2022-12-18T00:59:59;12.85;;;9.30;;
70150;SDS011;57517;43.562;19.540;2022-12-18T01:02:25;11.88;;;9.60;;
70150;SDS011;57517;43.562;19.540;2022-12-18T01:04:51;14.02;;;9.90;;
70150;SDS011;57517;43.562;19.540;2022-12-18T01:07:17;14.02;;;9.15;;
70150;SDS011;57517;43.562;19.540;2022-12-18T01:09:43;14.60;;;9.55;;
70150;SDS011;57517;43.562;19.540;2022-12-18T01:12:08;12.38;;;8.75;;
70150;SDS011;57517;43.562;19.540;2022-12-18T01:14:34;13.50;;;9.07;;
70150;SDS011;57517;43.562;19.540;2022-12-18T01:17:01;12.02;;;8.95;;
70150;SDS011;57517;43.562;19.540;2022-12-18T01:19:28;13.15;;;8.40;;
70150;SDS011;57517;43.562;19.540;2022-12-18T01:21:54;13.52;;;8.82;;
70150;SDS011;57517;43.562;19.540;2022-12-18T01:24:20;14.00;;;8.73;;
70150;SDS011;57517;43.562;19.540;2022-12-18T01:26:46;11.60;;;8.93;;
70150;SDS011;57517;43.562;19.540;2022-12-18T01:29:11;14.48;;;9.80;;
70150;SDS011;57517;43.562;19.540;2022-12-18T01:31:37;15.40;;;10.35;;
70150;SDS011;57517;43.562;19.540;2022-12-18T01:34:04;13.90;;;9.88;;
70150;SDS011;57517;43.562;19.540;2022-12-18T01:36:34;13.07;;;9.35;;
70150;SDS011;57517;43.562;19.540;2022-12-18T01:39:05;13.43;;;9.73;;
70150;SDS011;57517;43.562;19.540;2022-12-18T01:41:36;15.52;;;10.45;;
70150;SDS011;57517;43.562;19.540;2022-12-18T01:47:15;13.27;;;10.40;;
70150;SDS011;57517;43.562;19.540;2022-12-18T01:50:11;15.68;;;10.50;;
70150;SDS011;57517;43.562;19.540;2022-12-18T01:52:44;14.00;;;10.55;;
70150;SDS011;57517;43.562;19.540;2022-12-18T01:55:16;16.33;;;11.48;;
70150;SDS011;57517;43.562;19.540;2022-12-18T01:57:45;15.77;;;10.70;;
70150;SDS011;57517;43.562;19.540;2022-12-18T02:00:14;15.88;;;11.48;;
70150;SDS011;57517;43.562;19.540;2022-12-18T02:02:43;14.32;;;10.55;;
70150;SDS011;57517;43.562;19.540;2022-12-18T02:05:10;18.70;;;11.45;;
70150;SDS011;57517;43.562;19.540;2022-12-18T02:12:52;18.10;;;10.82;;
70150;SDS011;57517;43.562;19.540;2022-12-18T02:15:49;19.17;;;11.52;;
70150;SDS011;57517;43.562;19.540;2022-12-18T02:18:24;19.23;;;12.50;;
70150;SDS011;57517;43.562;19.540;2022-12-18T02:23:41;20.08;;;14.20;;
70150;SDS011;57517;43.562;19.540;2022-12-18T02:26:23;17.77;;;12.25;;
70150;SDS011;57517;43.562;19.540;2022-12-18T02:29:10;20.38;;;12.70;;
70150;SDS011;57517;43.562;19.540;2022-12-18T02:31:47;19.05;;;12.55;;
70150;SDS011;57517;43.562;19.540;2022-12-18T02:34:17;15.95;;;11.43;;
70150;SDS011;57517;43.562;19.540;2022-12-18T02:36:45;18.38;;;12.80;;
70150;SDS011;57517;43.562;19.540;2022-12-18T02:39:13;20.13;;;12.43;;
70150;SDS011;57517;43.562;19.540;2022-12-18T02:41:40;18.52;;;13.13;;
70150;SDS011;57517;43.562;19.540;2022-12-18T02:44:08;19.90;;;13.73;;
70150;SDS011;57517;43.562;19.540;2022-12-18T02:46:39;18.65;;;12.48;;
70150;SDS011;57517;43.562;19.540;2022-12-18T02:51:41;16.70;;;13.00;;
70150;SDS011;57517;43.562;19.540;2022-12-18T02:54:13;21.98;;;13.40;;
70150;SDS011;57517;43.562;19.540;2022-12-18T02:56:51;22.20;;;13.35;;
70150;SDS011;57517;43.562;19.540;2022-12-18T02:59:23;20.05;;;13.25;;
70150;SDS011;57517;43.562;19.540;2022-12-18T03:04:49;24.65;;;14.25;;
70150;SDS011;57517;43.562;19.540;2022-12-18T03:07:33;18.95;;;12.85;;
70150;SDS011;57517;43.562;19.540;2022-12-18T03:10:19;19.63;;;12.57;;
70150;SDS011;57517;43.562;19.540;2022-12-18T03:12:52;17.45;;;12.68;;
70150;SDS011;57517;43.562;19.540;2022-12-18T03:15:30;21.35;;;14.05;;
70150;SDS011;57517;43.562;19.540;2022-12-18T03:18:04;18.08;;;12.68;;
70150;SDS011;57517;43.562;19.540;2022-12-18T03:20:35;24.38;;;14.75;;
70150;SDS011;57517;43.562;19.540;2022-12-18T03:23:07;21.33;;;14.85;;
70150;SDS011;57517;43.562;19.540;2022-12-18T03:25:37;19.50;;;13.48;;
70150;SDS011;57517;43.562;19.540;2022-12-18T03:28:08;21.50;;;14.20;;
70150;SDS011;57517;43.562;19.540;2022-12-18T03:30:38;21.58;;;14.75;;
70150;SDS011;57517;43.562;19.540;2022-12-18T03:33:14;19.67;;;13.98;;
70150;SDS011;57517;43.562;19.540;2022-12-18T03:35:55;22.88;;;15.75;;
70150;SDS011;57517;43.562;19.540;2022-12-18T03:38:21;23.17;;;15.02;;
70150;SDS011;57517;43.562;19.540;2022-12-18T03:41:07;21.77;;;13.15;;
70150;SDS011;57517;43.562;19.540;2022-12-18T03:46:47;21.02;;;14.30;;
70150;SDS011;57517;43.562;19.540;2022-12-18T03:52:00;21.20;;;15.32;;
70150;SDS011;57517;43.562;19.540;2022-12-18T03:54:47;21.70;;;13.32;;
70150;SDS011;57517;43.562;19.540;2022-12-18T03:57:14;21.00;;;14.40;;
70150;SDS011;57517;43.562;19.540;2022-12-18T03:59:50;24.90;;;15.32;;
70150;SDS011;57517;43.562;19.540;2022-12-18T04:02:22;19.60;;;13.90;;
70150;SDS011;57517;43.562;19.540;2022-12-18T04:04:51;21.95;;;14.20;;
70150;SDS011;57517;43.562;19.540;2022-12-18T04:07:18;22.95;;;14.93;;
70150;SDS011;57517;43.562;19.540;2022-12-18T04:09:46;22.77;;;14.02;;
70150;SDS011;57517;43.562;19.540;2022-12-18T04:12:14;20.23;;;13.73;;
70150;SDS011;57517;43.562;19.540;2022-12-18T04:14:39;18.40;;;13.73;;
70150;SDS011;57517;43.562;19.540;2022-12-18T04:17:05;19.92;;;14.18;;
70150;SDS011;57517;43.562;19.540;2022-12-18T04:19:31;22.85;;;14.50;;
70150;SDS011;57517;43.562;19.540;2022-12-18T04:21:57;22.83;;;14.50;;
70150;SDS011;57517;43.562;19.540;2022-12-18T04:24:23;24.27;;;15.15;;
70150;SDS011;57517;43.562;19.540;2022-12-18T04:26:49;23.92;;;14.68;;
70150;SDS011;57517;43.562;19.540;2022-12-18T04:29:14;19.42;;;13.45;;
70150;SDS011;57517;43.562;19.540;2022-12-18T04:31:40;18.33;;;13.45;;
70150;SDS011;57517;43.562;19.540;2022-12-18T04:34:06;22.02;;;13.77;;
70150;SDS011;57517;43.562;19.540;2022-12-18T04:36:32;23.50;;;15.35;;
70150;SDS011;57517;43.562;19.540;2022-12-18T04:38:57;22.50;;;14.35;;
70150;SDS011;57517;43.562;19.540;2022-12-18T04:41:23;18.60;;;13.77;;
70150;SDS011;57517;43.562;19.540;2022-12-18T04:43:49;21.50;;;14.40;;
70150;SDS011;57517;43.562;19.540;2022-12-18T04:46:15;20.95;;;13.40;;
70150;SDS011;57517;43.562;19.540;2022-12-18T04:48:40;17.77;;;13.73;;
70150;SDS011;57517;43.562;19.540;2022-12-18T04:51:07;20.60;;;13.95;;
70150;SDS011;57517;43.562;19.540;2022-12-18T04:53:32;19.08;;;14.18;;
70150;SDS011;57517;43.562;19.540;2022-12-18T04:58:31;24.90;;;15.90;;
70150;SDS011;57517;43.562;19.540;2022-12-18T05:00:57;22.05;;;14.63;;
70150;SDS011;57517;43.562;19.540;2022-12-18T05:03:22;23.55;;;14.10;;
70150;SDS011;57517;43.562;19.540;2022-12-18T05:05:51;24.02;;;14.93;;
70150;SDS011;57517;43.562;19.540;2022-12-18T05:08:18;22.67;;;14.38;;
70150;SDS011;57517;43.562;19.540;2022-12-18T05:10:44;25.20;;;16.75;;
70150;SDS011;57517;43.562;19.540;2022-12-18T05:13:10;22.67;;;15.57;;
70150;SDS011;57517;43.562;19.540;2022-12-18T05:15:35;22.52;;;13.90;;
70150;SDS011;57517;43.562;19.540;2022-12-18T05:18:01;28.23;;;14.50;;
70150;SDS011;57517;43.562;19.540;2022-12-18T05:20:28;25.30;;;16.00;;
70150;SDS011;57517;43.562;19.540;2022-12-18T05:22:54;20.98;;;13.75;;
70150;SDS011;57517;43.562;19.540;2022-12-18T05:25:21;21.85;;;14.63;;
70150;SDS011;57517;43.562;19.540;2022-12-18T05:27:47;22.25;;;14.02;;
70150;SDS011;57517;43.562;19.540;2022-12-18T05:30:14;22.50;;;14.88;;
70150;SDS011;57517;43.562;19.540;2022-12-18T05:32:40;24.58;;;15.02;;
70150;SDS011;57517;43.562;19.540;2022-12-18T05:35:07;23.33;;;15.02;;
70150;SDS011;57517;43.562;19.540;2022-12-18T05:37:34;23.90;;;15.52;;
70150;SDS011;57517;43.562;19.540;2022-12-18T05:40:00;21.70;;;15.05;;
70150;SDS011;57517;43.562;19.540;2022-12-18T05:42:27;21.30;;;14.85;;
70150;SDS011;57517;43.562;19.540;2022-12-18T05:44:52;22.42;;;14.27;;
70150;SDS011;57517;43.562;19.540;2022-12-18T05:47:18;22.60;;;15.02;;
70150;SDS011;57517;43.562;19.540;2022-12-18T05:49:44;25.65;;;14.88;;
70150;SDS011;57517;43.562;19.540;2022-12-18T05:52:10;22.92;;;16.33;;
70150;SDS011;57517;43.562;19.540;2022-12-18T05:54:36;25.00;;;15.77;;
70150;SDS011;57517;43.562;19.540;2022-12-18T05:57:01;25.90;;;16.63;;
70150;SDS011;57517;43.562;19.540;2022-12-18T05:59:27;24.27;;;15.48;;
70150;SDS011;57517;43.562;19.540;2022-12-18T06:01:53;26.20;;;16.77;;
70150;SDS011;57517;43.562;19.540;2022-12-18T06:04:19;23.30;;;15.70;;
70150;SDS011;57517;43.562;19.540;2022-12-18T06:06:45;25.60;;;15.98;;
70150;SDS011;57517;43.562;19.540;2022-12-18T06:09:10;25.02;;;16.08;;
70150;SDS011;57517;43.562;19.540;2022-12-18T06:11:36;22.60;;;16.70;;
70150;SDS011;57517;43.562;19.540;2022-12-18T06:14:03;23.45;;;16.17;;
70150;SDS011;57517;43.562;19.540;2022-12-18T06:16:30;24.00;;;15.80;;
70150;SDS011;57517;43.562;19.540;2022-12-18T06:18:57;24.85;;;15.73;;
70150;SDS011;57517;43.562;19.540;2022-12-18T06:21:23;27.08;;;18.08;;
70150;SDS011;57517;43.562;19.540;2022-12-18T06:23:49;26.30;;;18.20;;
70150;SDS011;57517;43.562;19.540;2022-12-18T06:26:15;28.33;;;18.02;;
70150;SDS011;57517;43.562;19.540;2022-12-18T06:28:41;27.15;;;17.20;;
70150;SDS011;57517;43.562;19.540;2022-12-18T06:31:07;25.23;;;16.50;;
70150;SDS011;57517;43.562;19.540;2022-12-18T06:33:34;26.92;;;17.33;;
70150;SDS011;57517;43.562;19.540;2022-12-18T06:36:04;24.58;;;16.55;;
70150;SDS011;57517;43.562;19.540;2022-12-18T06:38:32;31.13;;;19.15;;
70150;SDS011;57517;43.562;19.540;2022-12-18T06:40:58;26.92;;;19.65;;
70150;SDS011;57517;43.562;19.540;2022-12-18T06:43:24;29.15;;;19.10;;
70150;SDS011;57517;43.562;19.540;2022-12-18T06:45:50;31.13;;;19.52;;
70150;SDS011;57517;43.562;19.540;2022-12-18T06:48:20;25.02;;;17.10;;
70150;SDS011;57517;43.562;19.540;2022-12-18T06:50:46;25.00;;;17.13;;
70150;SDS011;57517;43.562;19.540;2022-12-18T06:53:12;32.25;;;20.98;;
70150;SDS011;57517;43.562;19.540;2022-12-18T06:55:38;26.88;;;18.13;;
70150;SDS011;57517;43.562;19.540;2022-12-18T06:58:03;23.48;;;16.67;;
70150;SDS011;57517;43.562;19.540;2022-12-18T07:00:29;21.90;;;16.08;;
70150;SDS011;57517;43.562;19.540;2022-12-18T07:02:55;29.13;;;19.98;;
70150;SDS011;57517;43.562;19.540;2022-12-18T07:05:21;29.05;;;20.63;;
70150;SDS011;57517;43.562;19.540;2022-12-18T07:07:47;23.10;;;16.05;;
70150;SDS011;57517;43.562;19.540;2022-12-18T07:10:12;28.92;;;20.10;;
70150;SDS011;57517;43.562;19.540;2022-12-18T07:12:38;30.27;;;20.58;;
70150;SDS011;57517;43.562;19.540;2022-12-18T07:15:04;47.58;;;33.78;;
70150;SDS011;57517;43.562;19.540;2022-12-18T07:17:30;40.15;;;28.67;;
70150;SDS011;57517;43.562;19.540;2022-12-18T07:19:56;30.05;;;19.77;;
70150;SDS011;57517;43.562;19.540;2022-12-18T07:22:22;26.75;;;19.15;;
70150;SDS011;57517;43.562;19.540;2022-12-18T07:24:51;42.60;;;28.27;;
70150;SDS011;57517;43.562;19.540;2022-12-18T07:27:16;32.35;;;22.65;;
70150;SDS011;57517;43.562;19.540;2022-12-18T07:29:42;25.50;;;17.52;;
70150;SDS011;57517;43.562;19.540;2022-12-18T07:32:08;23.75;;;18.45;;
70150;SDS011;57517;43.562;19.540;2022-12-18T07:34:34;25.33;;;17.08;;
70150;SDS011;57517;43.562;19.540;2022-12-18T07:37:00;25.80;;;16.67;;
70150;SDS011;57517;43.562;19.540;2022-12-18T07:39:26;28.23;;;18.60;;
70150;SDS011;57517;43.562;19.540;2022-12-18T07:41:51;27.00;;;18.02;;
70150;SDS011;57517;43.562;19.540;2022-12-18T07:44:36;29.25;;;18.63;;
70150;SDS011;57517;43.562;19.540;2022-12-18T07:47:02;30.45;;;21.40;;
70150;SDS011;57517;43.562;19.540;2022-12-18T07:49:28;32.00;;;20.58;;
70150;SDS011;57517;43.562;19.540;2022-12-18T07:51:54;26.40;;;17.65;;
70150;SDS011;57517;43.562;19.540;2022-12-18T07:54:21;28.75;;;18.40;;
70150;SDS011;57517;43.562;19.540;2022-12-18T07:56:48;45.72;;;33.92;;
70150;SDS011;57517;43.562;19.540;2022-12-18T07:59:13;43.92;;;31.35;;
70150;SDS011;57517;43.562;19.540;2022-12-18T08:01:39;54.45;;;33.53;;
70150;SDS011;57517;43.562;19.540;2022-12-18T08:04:05;28.90;;;20.40;;
70150;SDS011;57517;43.562;19.540;2022-12-18T08:06:31;40.60;;;27.40;;
70150;SDS011;57517;43.562;19.540;2022-12-18T08:08:57;32.63;;;22.80;;
70150;SDS011;57517;43.562;19.540;2022-12-18T08:11:24;43.17;;;31.77;;
70150;SDS011;57517;43.562;19.540;2022-12-18T08:13:51;32.38;;;23.75;;
70150;SDS011;57517;43.562;19.540;2022-12-18T08:16:17;26.98;;;17.85;;
70150;SDS011;57517;43.562;19.540;2022-12-18T08:18:43;29.65;;;21.17;;
70150;SDS011;57517;43.562;19.540;2022-12-18T08:23:40;27.20;;;19.70;;
70150;SDS011;57517;43.562;19.540;2022-12-18T08:26:06;24.55;;;20.42;;
70150;SDS011;57517;43.562;19.540;2022-12-18T08:28:32;29.75;;;19.92;;
70150;SDS011;57517;43.562;19.540;2022-12-18T08:30:58;33.65;;;23.08;;
70150;SDS011;57517;43.562;19.540;2022-12-18T08:33:24;29.67;;;19.73;;
70150;SDS011;57517;43.562;19.540;2022-12-18T08:35:51;26.92;;;20.02;;
70150;SDS011;57517;43.562;19.540;2022-12-18T08:38:17;27.55;;;18.50;;
70150;SDS011;57517;43.562;19.540;2022-12-18T08:40:43;24.75;;;16.83;;
70150;SDS011;57517;43.562;19.540;2022-12-18T08:43:09;21.65;;;15.07;;
70150;SDS011;57517;43.562;19.540;2022-12-18T08:45:54;23.35;;;16.58;;
70150;SDS011;57517;43.562;19.540;2022-12-18T08:48:20;25.55;;;16.42;;
70150;SDS011;57517;43.562;19.540;2022-12-18T08:50:59;29.40;;;19.85;;
70150;SDS011;57517;43.562;19.540;2022-12-18T08:53:25;33.45;;;22.92;;
70150;SDS011;57517;43.562;19.540;2022-12-18T08:55:51;27.80;;;21.17;;
70150;SDS011;57517;43.562;19.540;2022-12-18T08:58:17;31.90;;;21.20;;
70150;SDS011;57517;43.562;19.540;2022-12-18T09:00:43;28.13;;;18.70;;
70150;SDS011;57517;43.562;19.540;2022-12-18T09:03:12;24.23;;;15.80;;
70150;SDS011;57517;43.562;19.540;2022-12-18T09:05:42;23.15;;;16.00;;
70150;SDS011;57517;43.562;19.540;2022-12-18T09:08:08;25.25;;;17.42;;
70150;SDS011;57517;43.562;19.540;2022-12-18T09:10:40;24.77;;;17.20;;
70150;SDS011;57517;43.562;19.540;2022-12-18T09:13:07;31.08;;;20.83;;
70150;SDS011;57517;43.562;19.540;2022-12-18T09:15:33;26.90;;;19.63;;
70150;SDS011;57517;43.562;19.540;2022-12-18T09:17:58;30.33;;;22.20;;
70150;SDS011;57517;43.562;19.540;2022-12-18T09:20:24;34.92;;;24.15;;
70150;SDS011;57517;43.562;19.540;2022-12-18T09:22:53;29.85;;;21.10;;
70150;SDS011;57517;43.562;19.540;2022-12-18T09:25:19;31.02;;;19.02;;
70150;SDS011;57517;43.562;19.540;2022-12-18T09:27:46;25.40;;;17.30;;
70150;SDS011;57517;43.562;19.540;2022-12-18T09:30:12;29.58;;;19.77;;
70150;SDS011;57517;43.562;19.540;2022-12-18T09:32:38;25.15;;;17.77;;
70150;SDS011;57517;43.562;19.540;2022-12-18T09:35:04;21.52;;;16.00;;
70150;SDS011;57517;43.562;19.540;2022-12-18T09:37:30;20.08;;;14.75;;
70150;SDS011;57517;43.562;19.540;2022-12-18T09:39:56;26.58;;;18.95;;
70150;SDS011;57517;43.562;19.540;2022-12-18T09:42:21;24.42;;;17.73;;
70150;SDS011;57517;43.562;19.540;2022-12-18T09:44:52;28.33;;;19.38;;
70150;SDS011;57517;43.562;19.540;2022-12-18T09:47:23;23.42;;;15.88;;
70150;SDS011;57517;43.562;19.540;2022-12-18T09:52:35;24.85;;;18.10;;
70150;SDS011;57517;43.562;19.540;2022-12-18T10:00:17;28.88;;;20.20;;
70150;SDS011;57517;43.562;19.540;2022-12-18T10:02:46;26.88;;;20.38;;
70150;SDS011;57517;43.562;19.540;2022-12-18T10:05:16;26.88;;;19.33;;
70150;SDS011;57517;43.562;19.540;2022-12-18T10:10:47;27.35;;;22.00;;
70150;SDS011;57517;43.562;19.540;2022-12-18T10:16:09;34.50;;;24.48;;
70150;SDS011;57517;43.562;19.540;2022-12-18T10:22:08;30.15;;;23.55;;
70150;SDS011;57517;43.562;19.540;2022-12-18T10:27:24;43.03;;;29.33;;
70150;SDS011;57517;43.562;19.540;2022-12-18T10:29:51;42.65;;;30.05;;
70150;SDS011;57517;43.562;19.540;2022-12-18T10:32:19;39.40;;;26.85;;
70150;SDS011;57517;43.562;19.540;2022-12-18T10:34:47;32.03;;;21.38;;
70150;SDS011;57517;43.562;19.540;2022-12-18T10:37:17;29.77;;;21.20;;
70150;SDS011;57517;43.562;19.540;2022-12-18T10:39:45;32.00;;;22.38;;
70150;SDS011;57517;43.562;19.540;2022-12-18T10:42:29;34.47;;;23.20;;
70150;SDS011;57517;43.562;19.540;2022-12-18T10:45:02;28.15;;;19.70;;
70150;SDS011;57517;43.562;19.540;2022-12-18T10:47:34;34.28;;;25.67;;
70150;SDS011;57517;43.562;19.540;2022-12-18T10:50:00;29.95;;;22.98;;
70150;SDS011;57517;43.562;19.540;2022-12-18T10:52:26;25.75;;;17.63;;
70150;SDS011;57517;43.562;19.540;2022-12-18T10:54:54;22.13;;;16.35;;
70150;SDS011;57517;43.562;19.540;2022-12-18T10:59:52;36.05;;;23.95;;
70150;SDS011;57517;43.562;19.540;2022-12-18T11:02:27;38.10;;;27.52;;
70150;SDS011;57517;43.562;19.540;2022-12-18T11:05:00;61.88;;;41.10;;
70150;SDS011;57517;43.562;19.540;2022-12-18T11:07:33;59.85;;;38.65;;
70150;SDS011;57517;43.562;19.540;2022-12-18T11:10:17;39.03;;;26.40;;
70150;SDS011;57517;43.562;19.540;2022-12-18T11:12:44;48.17;;;34.40;;
70150;SDS011;57517;43.562;19.540;2022-12-18T11:15:19;44.30;;;31.77;;
70150;SDS011;57517;43.562;19.540;2022-12-18T11:17:51;38.20;;;29.25;;
70150;SDS011;57517;43.562;19.540;2022-12-18T11:23:03;43.08;;;26.77;;
70150;SDS011;57517;43.562;19.540;2022-12-18T11:25:31;37.38;;;26.33;;
70150;SDS011;57517;43.562;19.540;2022-12-18T11:28:05;31.83;;;22.60;;
70150;SDS011;57517;43.562;19.540;2022-12-18T11:31:25;20.10;;;14.77;;
70150;SDS011;57517;43.562;19.540;2022-12-18T11:33:58;25.58;;;18.60;;
70150;SDS011;57517;43.562;19.540;2022-12-18T11:36:43;29.95;;;21.83;;
70150;SDS011;57517;43.562;19.540;2022-12-18T11:39:24;29.08;;;20.45;;
70150;SDS011;57517;43.562;19.540;2022-12-18T11:47:25;23.20;;;17.63;;
70150;SDS011;57517;43.562;19.540;2022-12-18T11:50:11;24.27;;;18.10;;
70150;SDS011;57517;43.562;19.540;2022-12-18T11:52:42;25.55;;;17.45;;
70150;SDS011;57517;43.562;19.540;2022-12-18T11:55:12;30.80;;;24.40;;
70150;SDS011;57517;43.562;19.540;2022-12-18T12:00:35;27.20;;;19.98;;
70150;SDS011;57517;43.562;19.540;2022-12-18T12:03:21;32.65;;;20.80;;
70150;SDS011;57517;43.562;19.540;2022-12-18T12:09:11;22.20;;;14.52;;
70150;SDS011;57517;43.562;19.540;2022-12-18T12:17:22;23.63;;;16.50;;
70150;SDS011;57517;43.562;19.540;2022-12-18T12:25:46;23.85;;;18.10;;
70150;SDS011;57517;43.562;19.540;2022-12-18T12:36:12;25.85;;;20.05;;
70150;SDS011;57517;43.562;19.540;2022-12-18T12:38:42;24.50;;;18.08;;
70150;SDS011;57517;43.562;19.540;2022-12-18T12:41:16;24.90;;;16.67;;
70150;SDS011;57517;43.562;19.540;2022-12-18T12:44:06;24.42;;;17.48;;
70150;SDS011;57517;43.562;19.540;2022-12-18T12:46:36;17.67;;;13.30;;
70150;SDS011;57517;43.562;19.540;2022-12-18T12:49:07;19.00;;;12.35;;
70150;SDS011;57517;43.562;19.540;2022-12-18T12:51:39;19.63;;;15.35;;
70150;SDS011;57517;43.562;19.540;2022-12-18T12:54:16;19.17;;;13.77;;
70150;SDS011;57517;43.562;19.540;2022-12-18T12:56:47;24.55;;;15.95;;
70150;SDS011;57517;43.562;19.540;2022-12-18T13:02:33;34.38;;;23.48;;
70150;SDS011;57517;43.562;19.540;2022-12-18T13:07:59;26.73;;;18.65;;
70150;SDS011;57517;43.562;19.540;2022-12-18T13:10:32;27.88;;;20.83;;
70150;SDS011;57517;43.562;19.540;2022-12-18T13:13:02;34.65;;;25.02;;
70150;SDS011;57517;43.562;19.540;2022-12-18T13:15:44;29.10;;;21.05;;
70150;SDS011;57517;43.562;19.540;2022-12-18T13:18:19;25.33;;;17.35;;
70150;SDS011;57517;43.562;19.540;2022-12-18T13:25:48;24.40;;;16.15;;
70150;SDS011;57517;43.562;19.540;2022-12-18T13:31:11;21.27;;;16.05;;
70150;SDS011;57517;43.562;19.540;2022-12-18T13:41:39;19.75;;;14.60;;
70150;SDS011;57517;43.562;19.540;2022-12-18T13:47:01;26.58;;;19.05;;
70150;SDS011;57517;43.562;19.540;2022-12-18T13:49:49;30.10;;;21.40;;
70150;SDS011;57517;43.562;19.540;2022-12-18T13:52:24;38.22;;;27.92;;
70150;SDS011;57517;43.562;19.540;2022-12-18T13:54:55;37.42;;;27.80;;
70150;SDS011;57517;43.562;19.540;2022-12-18T13:57:35;28.52;;;21.00;;
70150;SDS011;57517;43.562;19.540;2022-12-18T14:00:27;28.15;;;19.83;;
70150;SDS011;57517;43.562;19.540;2022-12-18T14:02:55;42.72;;;29.73;;
70150;SDS011;57517;43.562;19.540;2022-12-18T14:05:32;29.70;;;22.10;;
70150;SDS011;57517;43.562;19.540;2022-12-18T14:08:08;33.65;;;24.75;;
70150;SDS011;57517;43.562;19.540;2022-12-18T14:10:44;35.80;;;25.00;;
70150;SDS011;57517;43.562;19.540;2022-12-18T14:15:42;28.05;;;18.88;;
70150;SDS011;57517;43.562;19.540;2022-12-18T14:20:53;34.72;;;24.40;;
70150;SDS011;57517;43.562;19.540;2022-12-18T14:26:00;39.17;;;27.60;;
70150;SDS011;57517;43.562;19.540;2022-12-18T14:28:27;49.92;;;35.38;;
70150;SDS011;57517;43.562;19.540;2022-12-18T14:30:53;40.17;;;29.27;;
70150;SDS011;57517;43.562;19.540;2022-12-18T14:33:24;39.85;;;28.30;;
70150;SDS011;57517;43.562;19.540;2022-12-18T14:36:01;55.25;;;36.53;;
70150;SDS011;57517;43.562;19.540;2022-12-18T14:38:32;51.67;;;35.63;;
70150;SDS011;57517;43.562;19.540;2022-12-18T14:43:42;34.08;;;25.00;;
70150;SDS011;57517;43.562;19.540;2022-12-18T14:48:58;43.40;;;30.52;;
70150;SDS011;57517;43.562;19.540;2022-12-18T14:51:27;27.30;;;21.48;;
70150;SDS011;57517;43.562;19.540;2022-12-18T14:53:58;43.45;;;31.88;;
70150;SDS011;57517;43.562;19.540;2022-12-18T14:56:30;50.28;;;33.03;;
70150;SDS011;57517;43.562;19.540;2022-12-18T14:58:59;40.40;;;31.15;;
70150;SDS011;57517;43.562;19.540;2022-12-18T15:01:44;36.92;;;26.65;;
70150;SDS011;57517;43.562;19.540;2022-12-18T15:04:25;29.77;;;23.83;;
70150;SDS011;57517;43.562;19.540;2022-12-18T15:09:47;34.85;;;25.88;;
70150;SDS011;57517;43.562;19.540;2022-12-18T15:12:35;54.30;;;39.95;;
70150;SDS011;57517;43.562;19.540;2022-12-18T15:15:03;44.50;;;31.60;;
70150;SDS011;57517;43.562;19.540;2022-12-18T15:17:29;28.60;;;22.40;;
70150;SDS011;57517;43.562;19.540;2022-12-18T15:20:03;32.90;;;26.27;;
70150;SDS011;57517;43.562;19.540;2022-12-18T15:22:35;39.85;;;32.30;;
70150;SDS011;57517;43.562;19.540;2022-12-18T15:25:03;44.75;;;34.95;;
70150;SDS011;57517;43.562;19.540;2022-12-18T15:27:48;54.70;;;42.50;;
70150;SDS011;57517;43.562;19.540;2022-12-18T15:32:43;27.55;;;20.25;;
70150;SDS011;57517;43.562;19.540;2022-12-18T15:37:49;28.88;;;19.88;;
70150;SDS011;57517;43.562;19.540;2022-12-18T15:40:17;31.45;;;26.52;;
70150;SDS011;57517;43.562;19.540;2022-12-18T15:42:44;29.30;;;21.48;;
70150;SDS011;57517;43.562;19.540;2022-12-18T15:45:29;26.00;;;20.92;;
70150;SDS011;57517;43.562;19.540;2022-12-18T15:47:55;33.60;;;24.27;;
70150;SDS011;57517;43.562;19.540;2022-12-18T15:50:21;43.05;;;29.17;;
70150;SDS011;57517;43.562;19.540;2022-12-18T15:52:48;34.97;;;24.27;;
70150;SDS011;57517;43.562;19.540;2022-12-18T15:55:25;30.27;;;20.85;;
70150;SDS011;57517;43.562;19.540;2022-12-18T15:58:09;36.15;;;25.02;;
70150;SDS011;57517;43.562;19.540;2022-12-18T16:00:36;35.40;;;22.65;;
70150;SDS011;57517;43.562;19.540;2022-12-18T16:03:04;31.42;;;22.67;;
70150;SDS011;57517;43.562;19.540;2022-12-18T16:05:30;31.67;;;22.42;;
70150;SDS011;57517;43.562;19.540;2022-12-18T16:07:56;31.63;;;20.95;;
70150;SDS011;57517;43.562;19.540;2022-12-18T16:10:23;25.35;;;18.98;;
70150;SDS011;57517;43.562;19.540;2022-12-18T16:12:50;29.77;;;22.77;;
70150;SDS011;57517;43.562;19.540;2022-12-18T16:15:16;39.13;;;27.20;;
70150;SDS011;57517;43.562;19.540;2022-12-18T16:17:42;35.88;;;23.95;;
70150;SDS011;57517;43.562;19.540;2022-12-18T16:20:13;31.25;;;22.63;;
70150;SDS011;57517;43.562;19.540;2022-12-18T16:22:41;31.88;;;24.92;;
70150;SDS011;57517;43.562;19.540;2022-12-18T16:27:48;32.65;;;21.92;;
70150;SDS011;57517;43.562;19.540;2022-12-18T16:30:15;30.95;;;22.42;;
70150;SDS011;57517;43.562;19.540;2022-12-18T16:32:43;28.58;;;22.30;;
70150;SDS011;57517;43.562;19.540;2022-12-18T16:35:10;35.03;;;27.23;;
70150;SDS011;57517;43.562;19.540;2022-12-18T16:37:37;35.97;;;25.25;;